MMNL/NLD METAR and TAF weather

Enter ICAO airport designator
Station Type Date Time Source
MMNL METAR 2020/07/15 00:40 UTC NOAA

MMNL 150040Z 15015KT 10SM SKC 40/12 A2980


Station Type Date Time Source
MMNL Decoded METAR 2020/07/15 00:40 UTC NOAA

Nuevo Laredo International , Mexico (MMNL) 27-26N 099-34W
Jul 14, 2020 - 08:40 PM EDT / 2020.07.15 0040 UTC
Wind: from the SSE (150 degrees) at 17 MPH (15 KT):0
Visibility: 10 mile(s):0
Sky conditions: clear
Temperature: 104 F (40 C)
Heat index: 101.8 F (38.8 C):1
Dew Point: 53 F (12 C)
Relative Humidity: 18%
Pressure (altimeter): 29.8 in. Hg (1009 hPa)
ob: MMNL 150040Z 15015KT 10SM SKC 40/12 A2980
cycle: 0

Station Type Date Time Source
MMNL TAF 2020/07/14 18:32 UTC NOAA

TAF MMNL 141728Z 1418/1518 15015KT P6SM SKC
BECMG 1502/1503 15008KT
FM151700 17012KT P6SM SKC

Example: see airport list